sensor_id;sensor_type;location;lat;lon;timestamp;pressure;altitude;pressure_sealevel;temperature;humidity
68137;BME280;54939;50.826;9.030;2023-01-05T00:00:01;98599.88;;;9.14;74.27
68137;BME280;54939;50.826;9.030;2023-01-05T00:00:31;98599.03;;;9.13;74.20
68137;BME280;54939;50.826;9.030;2023-01-05T00:01:02;98598.22;;;9.13;74.23
68137;BME280;54939;50.826;9.030;2023-01-05T00:01:32;98594.72;;;9.12;74.78
68137;BME280;54939;50.826;9.030;2023-01-05T00:02:02;98605.38;;;9.12;74.19
68137;BME280;54939;50.826;9.030;2023-01-05T00:02:33;98595.69;;;9.11;74.74
68137;BME280;54939;50.826;9.030;2023-01-05T00:03:03;98595.69;;;9.11;74.57
68137;BME280;54939;50.826;9.030;2023-01-05T00:03:34;98596.53;;;9.12;74.61
68137;BME280;54939;50.826;9.030;2023-01-05T00:04:05;98592.91;;;9.13;74.45
68137;BME280;54939;50.826;9.030;2023-01-05T00:04:35;98584.91;;;9.13;74.68
68137;BME280;54939;50.826;9.030;2023-01-05T00:05:05;98588.38;;;9.13;74.70
68137;BME280;54939;50.826;9.030;2023-01-05T00:05:35;98585.88;;;9.12;74.58
68137;BME280;54939;50.826;9.030;2023-01-05T00:06:09;98581.41;;;9.12;74.10
68137;BME280;54939;50.826;9.030;2023-01-05T00:06:40;98585.88;;;9.12;74.11
68137;BME280;54939;50.826;9.030;2023-01-05T00:07:10;98582.25;;;9.13;74.65
68137;BME280;54939;50.826;9.030;2023-01-05T00:07:41;98596.53;;;9.12;74.10
68137;BME280;54939;50.826;9.030;2023-01-05T00:08:12;98587.72;;;9.11;74.56
68137;BME280;54939;50.826;9.030;2023-01-05T00:08:42;98585.03;;;9.11;74.79
68137;BME280;54939;50.826;9.030;2023-01-05T00:09:14;98576.06;;;9.12;74.51
68137;BME280;54939;50.826;9.030;2023-01-05T00:09:44;98585.72;;;9.13;74.75
68137;BME280;54939;50.826;9.030;2023-01-05T00:10:14;98584.91;;;9.13;74.79
68137;BME280;54939;50.826;9.030;2023-01-05T00:11:13;98578.56;;;9.14;74.45
68137;BME280;54939;50.826;9.030;2023-01-05T00:12:03;98586.72;;;9.12;74.40
68137;BME280;54939;50.826;9.030;2023-01-05T00:12:52;98587.56;;;9.13;74.28
68137;BME280;54939;50.826;9.030;2023-01-05T00:13:41;98592.06;;;9.12;74.21
68137;BME280;54939;50.826;9.030;2023-01-05T00:14:30;98584.91;;;9.13;74.08
68137;BME280;54939;50.826;9.030;2023-01-05T00:15:19;98582.25;;;9.13;74.54
68137;BME280;54939;50.826;9.030;2023-01-05T00:16:12;98592.06;;;9.12;74.64
68137;BME280;54939;50.826;9.030;2023-01-05T00:17:01;98585.88;;;9.12;74.06
68137;BME280;54939;50.826;9.030;2023-01-05T00:17:51;98585.88;;;9.12;74.58
68137;BME280;54939;50.826;9.030;2023-01-05T00:18:40;98586.72;;;9.12;74.81
68137;BME280;54939;50.826;9.030;2023-01-05T00:19:29;98585.88;;;9.12;74.45
68137;BME280;54939;50.826;9.030;2023-01-05T00:20:19;98574.53;;;9.09;74.16
68137;BME280;54939;50.826;9.030;2023-01-05T00:21:11;98577.19;;;9.09;74.22
68137;BME280;54939;50.826;9.030;2023-01-05T00:22:00;98588.69;;;9.10;74.28
68137;BME280;54939;50.826;9.030;2023-01-05T00:22:50;98579.84;;;9.09;74.57
68137;BME280;54939;50.826;9.030;2023-01-05T00:23:21;98583.50;;;9.08;74.07
68137;BME280;54939;50.826;9.030;2023-01-05T00:23:51;98587.84;;;9.09;74.59
68137;BME280;54939;50.826;9.030;2023-01-05T00:24:21;98580.69;;;9.10;74.18
68137;BME280;54939;50.826;9.030;2023-01-05T00:24:52;98590.50;;;9.09;74.02
68137;BME280;54939;50.826;9.030;2023-01-05T00:25:23;98591.34;;;9.10;74.09
68137;BME280;54939;50.826;9.030;2023-01-05T00:25:53;98586.88;;;9.11;74.55
68137;BME280;54939;50.826;9.030;2023-01-05T00:26:24;98595.69;;;9.11;74.73
68137;BME280;54939;50.826;9.030;2023-01-05T00:26:54;98591.34;;;9.10;74.32
68137;BME280;54939;50.826;9.030;2023-01-05T00:27:25;98595.84;;;9.09;74.70
68137;BME280;54939;50.826;9.030;2023-01-05T00:27:55;98593.16;;;9.09;74.11
68137;BME280;54939;50.826;9.030;2023-01-05T00:28:27;98587.84;;;9.09;74.41
68137;BME280;54939;50.826;9.030;2023-01-05T00:28:57;98593.03;;;9.11;74.67
68137;BME280;54939;50.826;9.030;2023-01-05T00:29:27;98600.19;;;9.11;74.22
68137;BME280;54939;50.826;9.030;2023-01-05T00:29:57;98594.00;;;9.10;73.93
68137;BME280;54939;50.826;9.030;2023-01-05T00:30:29;98599.34;;;9.10;74.54
68137;BME280;54939;50.826;9.030;2023-01-05T00:31:00;98596.69;;;9.10;74.26
68137;BME280;54939;50.826;9.030;2023-01-05T00:31:30;98595.69;;;9.11;74.76
68137;BME280;54939;50.826;9.030;2023-01-05T00:32:00;98597.38;;;9.12;74.43
68137;BME280;54939;50.826;9.030;2023-01-05T00:32:30;98599.19;;;9.12;74.23
68137;BME280;54939;50.826;9.030;2023-01-05T00:33:00;98603.69;;;9.11;74.57
68137;BME280;54939;50.826;9.030;2023-01-05T00:33:30;98601.88;;;9.12;74.35
68137;BME280;54939;50.826;9.030;2023-01-05T00:34:01;98597.38;;;9.12;73.94
68137;BME280;54939;50.826;9.030;2023-01-05T00:34:31;98596.53;;;9.12;74.62
68137;BME280;54939;50.826;9.030;2023-01-05T00:35:02;98603.53;;;9.13;74.27
68137;BME280;54939;50.826;9.030;2023-01-05T00:35:32;98598.22;;;9.13;74.61
68137;BME280;54939;50.826;9.030;2023-01-05T00:36:07;98590.06;;;9.14;74.48
68137;BME280;54939;50.826;9.030;2023-01-05T00:36:38;98591.88;;;9.14;74.48
68137;BME280;54939;50.826;9.030;2023-01-05T00:37:08;98599.88;;;9.14;74.29
68137;BME280;54939;50.826;9.030;2023-01-05T00:37:39;98592.91;;;9.13;74.22
68137;BME280;54939;50.826;9.030;2023-01-05T00:38:09;98594.72;;;9.12;74.62
68137;BME280;54939;50.826;9.030;2023-01-05T00:38:40;98599.19;;;9.12;74.30
68137;BME280;54939;50.826;9.030;2023-01-05T00:39:10;98602.53;;;9.14;74.39
68137;BME280;54939;50.826;9.030;2023-01-05T00:39:40;98592.06;;;9.12;74.14
68137;BME280;54939;50.826;9.030;2023-01-05T00:40:11;98593.88;;;9.12;73.82
68137;BME280;54939;50.826;9.030;2023-01-05T00:40:41;98590.38;;;9.11;74.47
68137;BME280;54939;50.826;9.030;2023-01-05T00:41:12;98587.72;;;9.11;73.94
68137;BME280;54939;50.826;9.030;2023-01-05T00:41:42;98596.53;;;9.12;74.38
68137;BME280;54939;50.826;9.030;2023-01-05T00:42:12;98601.88;;;9.12;74.27
68137;BME280;54939;50.826;9.030;2023-01-05T00:42:42;98594.84;;;9.11;74.20
68137;BME280;54939;50.826;9.030;2023-01-05T00:43:12;98594.00;;;9.10;74.70
68137;BME280;54939;50.826;9.030;2023-01-05T00:43:42;98600.19;;;9.11;74.39
68137;BME280;54939;50.826;9.030;2023-01-05T00:44:13;98606.50;;;9.09;74.55
68137;BME280;54939;50.826;9.030;2023-01-05T00:44:43;98598.50;;;9.09;74.09
68137;BME280;54939;50.826;9.030;2023-01-05T00:45:14;98609.28;;;9.08;74.13
68137;BME280;54939;50.826;9.030;2023-01-05T00:45:45;98598.50;;;9.09;74.60
68137;BME280;54939;50.826;9.030;2023-01-05T00:46:15;98602.84;;;9.11;73.90
68137;BME280;54939;50.826;9.030;2023-01-05T00:46:45;98600.19;;;9.11;74.38
68137;BME280;54939;50.826;9.030;2023-01-05T00:47:15;98601.03;;;9.11;74.42
68137;BME280;54939;50.826;9.030;2023-01-05T00:47:45;98607.19;;;9.12;73.83
68137;BME280;54939;50.826;9.030;2023-01-05T00:48:16;98602.00;;;9.10;74.42
68137;BME280;54939;50.826;9.030;2023-01-05T00:48:46;98608.16;;;9.11;74.24
68137;BME280;54939;50.826;9.030;2023-01-05T00:49:16;98607.19;;;9.12;73.98
68137;BME280;54939;50.826;9.030;2023-01-05T00:49:46;98602.69;;;9.12;74.46
68137;BME280;54939;50.826;9.030;2023-01-05T00:50:16;98600.88;;;9.13;74.58
68137;BME280;54939;50.826;9.030;2023-01-05T00:50:48;98607.00;;;9.13;74.09
68137;BME280;54939;50.826;9.030;2023-01-05T00:51:18;98596.38;;;9.13;74.18
68137;BME280;54939;50.826;9.030;2023-01-05T00:51:48;98601.88;;;9.12;74.52
68137;BME280;54939;50.826;9.030;2023-01-05T00:52:19;98589.53;;;9.11;73.99
68137;BME280;54939;50.826;9.030;2023-01-05T00:52:49;98587.56;;;9.13;73.99
68137;BME280;54939;50.826;9.030;2023-01-05T00:53:19;98592.06;;;9.12;74.18
68137;BME280;54939;50.826;9.030;2023-01-05T00:53:49;98603.53;;;9.13;74.56
68137;BME280;54939;50.826;9.030;2023-01-05T00:54:19;98581.41;;;9.12;74.15
68137;BME280;54939;50.826;9.030;2023-01-05T00:54:49;98596.53;;;9.12;74.56
68137;BME280;54939;50.826;9.030;2023-01-05T00:55:20;98594.84;;;9.11;74.22
68137;BME280;54939;50.826;9.030;2023-01-05T00:55:56;98597.38;;;9.12;74.25
68137;BME280;54939;50.826;9.030;2023-01-05T00:56:26;98592.06;;;9.12;74.46
68137;BME280;54939;50.826;9.030;2023-01-05T00:56:57;98599.19;;;9.12;74.42
68137;BME280;54939;50.826;9.030;2023-01-05T00:57:27;98596.53;;;9.12;74.13
68137;BME280;54939;50.826;9.030;2023-01-05T00:57:57;98596.53;;;9.12;74.61
68137;BME280;54939;50.826;9.030;2023-01-05T00:58:27;98594.72;;;9.12;74.15
68137;BME280;54939;50.826;9.030;2023-01-05T00:58:57;98595.56;;;9.13;74.18
68137;BME280;54939;50.826;9.030;2023-01-05T00:59:27;98602.53;;;9.14;74.35
68137;BME280;54939;50.826;9.030;2023-01-05T00:59:58;98603.53;;;9.13;74.55
68137;BME280;54939;50.826;9.030;2023-01-05T01:00:28;98604.53;;;9.12;74.42
68137;BME280;54939;50.826;9.030;2023-01-05T01:00:58;98605.50;;;9.11;73.76
68137;BME280;54939;50.826;9.030;2023-01-05T01:01:28;98615.19;;;9.12;73.94
68137;BME280;54939;50.826;9.030;2023-01-05T01:01:58;98606.34;;;9.11;74.72
68137;BME280;54939;50.826;9.030;2023-01-05T01:02:29;98607.19;;;9.12;74.60
68137;BME280;54939;50.826;9.030;2023-01-05T01:02:59;98607.19;;;9.12;74.53
68137;BME280;54939;50.826;9.030;2023-01-05T01:03:29;98606.22;;;9.13;74.10
68137;BME280;54939;50.826;9.030;2023-01-05T01:03:59;98608.88;;;9.13;74.37
68137;BME280;54939;50.826;9.030;2023-01-05T01:04:30;98610.53;;;9.14;74.45
68137;BME280;54939;50.826;9.030;2023-01-05T01:05:00;98608.88;;;9.13;73.92
68137;BME280;54939;50.826;9.030;2023-01-05T01:05:30;98606.22;;;9.13;74.25
68137;BME280;54939;50.826;9.030;2023-01-05T01:06:01;98621.16;;;9.14;74.54
68137;BME280;54939;50.826;9.030;2023-01-05T01:06:31;98603.53;;;9.13;74.46
68137;BME280;54939;50.826;9.030;2023-01-05T01:07:01;98604.34;;;9.13;73.99
68137;BME280;54939;50.826;9.030;2023-01-05T01:07:31;98618.50;;;9.14;73.87
68137;BME280;54939;50.826;9.030;2023-01-05T01:08:02;98609.69;;;9.13;74.58
68137;BME280;54939;50.826;9.030;2023-01-05T01:08:32;98607.00;;;9.13;74.19
68137;BME280;54939;50.826;9.030;2023-01-05T01:09:02;98622.00;;;9.14;73.99
68137;BME280;54939;50.826;9.030;2023-01-05T01:09:33;98617.66;;;9.13;74.21
68137;BME280;54939;50.826;9.030;2023-01-05T01:10:03;98611.53;;;9.13;74.58
68137;BME280;54939;50.826;9.030;2023-01-05T01:10:33;98609.84;;;9.12;73.90
68137;BME280;54939;50.826;9.030;2023-01-05T01:11:04;98609.69;;;9.13;73.84
68137;BME280;54939;50.826;9.030;2023-01-05T01:11:35;98616.88;;;9.13;73.98
68137;BME280;54939;50.826;9.030;2023-01-05T01:12:05;98611.53;;;9.13;73.91
68137;BME280;54939;50.826;9.030;2023-01-05T01:12:35;98614.19;;;9.13;74.10
68137;BME280;54939;50.826;9.030;2023-01-05T01:13:06;98615.84;;;9.14;73.79
68137;BME280;54939;50.826;9.030;2023-01-05T01:13:36;98618.50;;;9.14;74.37
68137;BME280;54939;50.826;9.030;2023-01-05T01:14:08;98613.19;;;9.14;74.28
68137;BME280;54939;50.826;9.030;2023-01-05T01:14:39;98619.53;;;9.13;74.55
68137;BME280;54939;50.826;9.030;2023-01-05T01:15:10;98606.22;;;9.13;74.36
68137;BME280;54939;50.826;9.030;2023-01-05T01:15:40;98603.53;;;9.13;74.11
68137;BME280;54939;50.826;9.030;2023-01-05T01:16:11;98610.53;;;9.14;74.29
68137;BME280;54939;50.826;9.030;2023-01-05T01:16:42;98606.22;;;9.13;74.31
68137;BME280;54939;50.826;9.030;2023-01-05T01:17:12;98607.19;;;9.12;74.34
68137;BME280;54939;50.826;9.030;2023-01-05T01:17:42;98608.03;;;9.12;73.84
68137;BME280;54939;50.826;9.030;2023-01-05T01:18:12;98606.34;;;9.11;74.24
68137;BME280;54939;50.826;9.030;2023-01-05T01:18:43;98602.69;;;9.12;74.55
68137;BME280;54939;50.826;9.030;2023-01-05T01:19:14;98598.34;;;9.11;74.33
68137;BME280;54939;50.826;9.030;2023-01-05T01:19:45;98592.19;;;9.11;74.42
68137;BME280;54939;50.826;9.030;2023-01-05T01:20:15;98600.03;;;9.12;73.90
68137;BME280;54939;50.826;9.030;2023-01-05T01:20:45;98597.38;;;9.12;74.57
68137;BME280;54939;50.826;9.030;2023-01-05T01:21:16;98597.38;;;9.12;74.53
68137;BME280;54939;50.826;9.030;2023-01-05T01:21:46;98602.69;;;9.12;74.32
68137;BME280;54939;50.826;9.030;2023-01-05T01:22:16;98603.53;;;9.13;74.42
68137;BME280;54939;50.826;9.030;2023-01-05T01:22:46;98595.84;;;9.09;74.00
68137;BME280;54939;50.826;9.030;2023-01-05T01:23:16;98605.38;;;9.12;74.32
68137;BME280;54939;50.826;9.030;2023-01-05T01:23:47;98605.38;;;9.12;74.00
68137;BME280;54939;50.826;9.030;2023-01-05T01:24:18;98604.53;;;9.12;74.31
68137;BME280;54939;50.826;9.030;2023-01-05T01:24:48;98611.53;;;9.13;74.07
68137;BME280;54939;50.826;9.030;2023-01-05T01:25:19;98607.19;;;9.12;74.54
68137;BME280;54939;50.826;9.030;2023-01-05T01:25:49;98610.84;;;9.11;73.96
68137;BME280;54939;50.826;9.030;2023-01-05T01:26:19;98604.53;;;9.12;74.13
68137;BME280;54939;50.826;9.030;2023-01-05T01:26:49;98608.03;;;9.12;74.25
68137;BME280;54939;50.826;9.030;2023-01-05T01:27:19;98611.66;;;9.11;74.28
68137;BME280;54939;50.826;9.030;2023-01-05T01:27:50;98621.34;;;9.12;73.99
68137;BME280;54939;50.826;9.030;2023-01-05T01:28:20;98613.34;;;9.12;74.52
68137;BME280;54939;50.826;9.030;2023-01-05T01:28:50;98612.50;;;9.12;74.38
68137;BME280;54939;50.826;9.030;2023-01-05T01:29:20;98606.22;;;9.13;74.27
68137;BME280;54939;50.826;9.030;2023-01-05T01:29:51;98605.38;;;9.12;74.17
68137;BME280;54939;50.826;9.030;2023-01-05T01:30:21;98604.53;;;9.12;74.53
68137;BME280;54939;50.826;9.030;2023-01-05T01:30:51;98601.88;;;9.12;74.45
68137;BME280;54939;50.826;9.030;2023-01-05T01:31:21;98599.34;;;9.10;74.61
68137;BME280;54939;50.826;9.030;2023-01-05T01:31:52;98609.84;;;9.12;74.07
68137;BME280;54939;50.826;9.030;2023-01-05T01:32:22;98622.31;;;9.11;74.17
68137;BME280;54939;50.826;9.030;2023-01-05T01:32:53;98607.31;;;9.10;74.49
68137;BME280;54939;50.826;9.030;2023-01-05T01:33:23;98610.84;;;9.11;74.41
68137;BME280;54939;50.826;9.030;2023-01-05T01:33:53;98614.34;;;9.11;74.02
68137;BME280;54939;50.826;9.030;2023-01-05T01:34:23;98612.50;;;9.12;74.27
68137;BME280;54939;50.826;9.030;2023-01-05T01:34:54;98612.50;;;9.12;73.97
68137;BME280;54939;50.826;9.030;2023-01-05T01:35:24;98613.34;;;9.12;74.10
68137;BME280;54939;50.826;9.030;2023-01-05T01:35:54;98608.88;;;9.13;74.31
68137;BME280;54939;50.826;9.030;2023-01-05T01:36:25;98605.38;;;9.12;73.86
68137;BME280;54939;50.826;9.030;2023-01-05T01:36:55;98609.84;;;9.12;74.48
68137;BME280;54939;50.826;9.030;2023-01-05T01:37:26;98616.88;;;9.13;73.92
68137;BME280;54939;50.826;9.030;2023-01-05T01:37:56;98618.69;;;9.12;74.11
68137;BME280;54939;50.826;9.030;2023-01-05T01:38:26;98617.00;;;9.11;74.22
68137;BME280;54939;50.826;9.030;2023-01-05T01:38:56;98617.84;;;9.12;74.12
68137;BME280;54939;50.826;9.030;2023-01-05T01:39:26;98610.00;;;9.10;74.42
68137;BME280;54939;50.826;9.030;2023-01-05T01:39:56;98618.81;;;9.11;74.46
68137;BME280;54939;50.826;9.030;2023-01-05T01:40:26;98626.66;;;9.12;74.50
68137;BME280;54939;50.826;9.030;2023-01-05T01:40:57;98615.31;;;9.10;74.04
68137;BME280;54939;50.826;9.030;2023-01-05T01:41:27;98611.66;;;9.11;74.12
68137;BME280;54939;50.826;9.030;2023-01-05T01:41:57;98622.31;;;9.11;74.51
68137;BME280;54939;50.826;9.030;2023-01-05T01:42:27;98612.50;;;9.12;74.54
68137;BME280;54939;50.826;9.030;2023-01-05T01:42:57;98610.69;;;9.12;74.01
68137;BME280;54939;50.826;9.030;2023-01-05T01:43:41;98622.31;;;9.11;73.94
68137;BME280;54939;50.826;9.030;2023-01-05T01:45:04;98618.69;;;9.12;74.23
68137;BME280;54939;50.826;9.030;2023-01-05T01:45:38;98624.00;;;9.12;74.28
68137;BME280;54939;50.826;9.030;2023-01-05T01:46:08;98624.84;;;9.13;73.97
68137;BME280;54939;50.826;9.030;2023-01-05T01:46:38;98621.16;;;9.14;74.10
68137;BME280;54939;50.826;9.030;2023-01-05T01:47:09;98625.53;;;9.15;74.00
68137;BME280;54939;50.826;9.030;2023-01-05T01:47:44;98618.50;;;9.14;73.82
68137;BME280;54939;50.826;9.030;2023-01-05T01:48:16;98620.34;;;9.13;73.64
68137;BME280;54939;50.826;9.030;2023-01-05T01:48:48;98624.84;;;9.13;74.32
68137;BME280;54939;50.826;9.030;2023-01-05T01:49:20;98618.69;;;9.12;74.07
68137;BME280;54939;50.826;9.030;2023-01-05T01:49:50;98624.84;;;9.13;74.20
68137;BME280;54939;50.826;9.030;2023-01-05T01:50:58;98627.50;;;9.13;74.15
68137;BME280;54939;50.826;9.030;2023-01-05T01:51:31;98630.19;;;9.13;74.00
68137;BME280;54939;50.826;9.030;2023-01-05T01:52:02;98628.31;;;9.13;73.83
68137;BME280;54939;50.826;9.030;2023-01-05T01:52:32;98621.34;;;9.12;74.01
68137;BME280;54939;50.826;9.030;2023-01-05T01:53:37;98628.31;;;9.13;74.51
68137;BME280;54939;50.826;9.030;2023-01-05T01:54:06;98624.84;;;9.13;74.21
68137;BME280;54939;50.826;9.030;2023-01-05T01:54:38;98627.50;;;9.13;74.09
68137;BME280;54939;50.826;9.030;2023-01-05T01:55:08;98623.16;;;9.12;73.83
68137;BME280;54939;50.826;9.030;2023-01-05T01:55:39;98626.66;;;9.12;73.91
68137;BME280;54939;50.826;9.030;2023-01-05T01:56:10;98624.84;;;9.13;74.07
68137;BME280;54939;50.826;9.030;2023-01-05T01:56:44;98623.00;;;9.13;73.86
68137;BME280;54939;50.826;9.030;2023-01-05T01:57:16;98623.84;;;9.14;74.19
68137;BME280;54939;50.826;9.030;2023-01-05T01:57:46;98626.50;;;9.14;74.10
68137;BME280;54939;50.826;9.030;2023-01-05T01:58:18;98624.00;;;9.12;74.43
68137;BME280;54939;50.826;9.030;2023-01-05T01:58:49;98617.84;;;9.12;74.05
68137;BME280;54939;50.826;9.030;2023-01-05T01:59:20;98624.84;;;9.13;74.07
68137;BME280;54939;50.826;9.030;2023-01-05T01:59:51;98626.50;;;9.14;74.22
68137;BME280;54939;50.826;9.030;2023-01-05T02:00:21;98637.16;;;9.14;74.42
68137;BME280;54939;50.826;9.030;2023-01-05T02:00:51;98625.66;;;9.13;74.35
68137;BME280;54939;50.826;9.030;2023-01-05T02:01:21;98630.97;;;9.13;73.83
68137;BME280;54939;50.826;9.030;2023-01-05T02:01:53;98622.19;;;9.13;74.35
68137;BME280;54939;50.826;9.030;2023-01-05T02:02:23;98622.00;;;9.14;74.08
68137;BME280;54939;50.826;9.030;2023-01-05T02:02:55;98625.66;;;9.13;74.38
68137;BME280;54939;50.826;9.030;2023-01-05T02:03:26;98625.66;;;9.13;74.00
68137;BME280;54939;50.826;9.030;2023-01-05T02:03:56;98631.16;;;9.12;74.12
68137;BME280;54939;50.826;9.030;2023-01-05T02:04:29;98632.00;;;9.12;74.13
68137;BME280;54939;50.826;9.030;2023-01-05T02:05:02;98629.34;;;9.12;74.13
68137;BME280;54939;50.826;9.030;2023-01-05T02:05:33;98624.84;;;9.13;74.24
68137;BME280;54939;50.826;9.030;2023-01-05T02:06:03;98634.50;;;9.14;74.42
68137;BME280;54939;50.826;9.030;2023-01-05T02:06:34;98634.50;;;9.14;73.92
68137;BME280;54939;50.826;9.030;2023-01-05T02:07:04;98624.84;;;9.13;74.07
68137;BME280;54939;50.826;9.030;2023-01-05T02:07:36;98624.00;;;9.12;74.14
68137;BME280;54939;50.826;9.030;2023-01-05T02:08:10;98617.00;;;9.11;73.90
68137;BME280;54939;50.826;9.030;2023-01-05T02:08:42;98623.00;;;9.13;74.34
68137;BME280;54939;50.826;9.030;2023-01-05T02:09:12;98612.34;;;9.13;74.33
68137;BME280;54939;50.826;9.030;2023-01-05T02:09:42;98611.53;;;9.13;74.12
68137;BME280;54939;50.826;9.030;2023-01-05T02:10:14;98615.19;;;9.12;74.21
68137;BME280;54939;50.826;9.030;2023-01-05T02:10:54;98615.19;;;9.12;74.48
68137;BME280;54939;50.826;9.030;2023-01-05T02:12:22;98611.53;;;9.13;73.92
68137;BME280;54939;50.826;9.030;2023-01-05T02:14:46;98599.19;;;9.12;73.98
68137;BME280;54939;50.826;9.030;2023-01-05T02:15:34;98609.84;;;9.12;74.36
68137;BME280;54939;50.826;9.030;2023-01-05T02:16:12;98601.03;;;9.11;74.25
68137;BME280;54939;50.826;9.030;2023-01-05T02:17:58;98597.53;;;9.11;74.09
68137;BME280;54939;50.826;9.030;2023-01-05T02:18:51;98608.16;;;9.11;74.02
68137;BME280;54939;50.826;9.030;2023-01-05T02:20:30;98593.88;;;9.12;74.54
68137;BME280;54939;50.826;9.030;2023-01-05T02:23:19;98589.53;;;9.11;74.45
68137;BME280;54939;50.826;9.030;2023-01-05T02:24:02;98597.53;;;9.11;74.51
68137;BME280;54939;50.826;9.030;2023-01-05T02:27:26;98601.88;;;9.12;74.58
68137;BME280;54939;50.826;9.030;2023-01-05T02:32:16;98611.38;;;9.14;74.13
68137;BME280;54939;50.826;9.030;2023-01-05T02:34:35;98606.88;;;9.15;74.04
68137;BME280;54939;50.826;9.030;2023-01-05T02:35:12;98606.03;;;9.14;73.86
68137;BME280;54939;50.826;9.030;2023-01-05T02:37:09;98606.88;;;9.15;73.90
68137;BME280;54939;50.826;9.030;2023-01-05T02:37:48;98610.38;;;9.15;74.03
68137;BME280;54939;50.826;9.030;2023-01-05T02:39:05;98610.53;;;9.14;74.21
68137;BME280;54939;50.826;9.030;2023-01-05T02:39:18;98621.03;;;9.15;74.10
68137;BME280;54939;50.826;9.030;2023-01-05T02:39:52;98615.72;;;9.15;73.90
68137;BME280;54939;50.826;9.030;2023-01-05T02:40:30;98623.84;;;9.14;74.26
68137;BME280;54939;50.826;9.030;2023-01-05T02:41:05;98619.22;;;9.16;74.09
68137;BME280;54939;50.826;9.030;2023-01-05T02:41:47;98610.25;;;9.17;74.06
68137;BME280;54939;50.826;9.030;2023-01-05T02:42:20;98618.09;;;9.18;74.19
68137;BME280;54939;50.826;9.030;2023-01-05T02:42:51;98618.22;;;9.17;74.21
68137;BME280;54939;50.826;9.030;2023-01-05T02:43:23;98616.41;;;9.17;74.00
68137;BME280;54939;50.826;9.030;2023-01-05T02:43:54;98617.38;;;9.16;74.14
68137;BME280;54939;50.826;9.030;2023-01-05T02:44:29;98610.25;;;9.17;73.71
68137;BME280;54939;50.826;9.030;2023-01-05T02:45:03;98612.06;;;9.16;73.73
68137;BME280;54939;50.826;9.030;2023-01-05T02:45:34;98618.38;;;9.15;73.55
68137;BME280;54939;50.826;9.030;2023-01-05T02:46:04;98619.22;;;9.16;74.01
68137;BME280;54939;50.826;9.030;2023-01-05T02:46:34;98620.06;;;9.16;74.15
68137;BME280;54939;50.826;9.030;2023-01-05T02:47:05;98621.88;;;9.16;74.24
68137;BME280;54939;50.826;9.030;2023-01-05T02:47:40;98621.03;;;9.15;74.21
68137;BME280;54939;50.826;9.030;2023-01-05T02:48:11;98624.53;;;9.16;73.72
68137;BME280;54939;50.826;9.030;2023-01-05T02:48:41;98632.53;;;9.16;73.79
68137;BME280;54939;50.826;9.030;2023-01-05T02:49:13;98622.84;;;9.15;74.11
68137;BME280;54939;50.826;9.030;2023-01-05T02:49:44;98618.38;;;9.15;74.03
68137;BME280;54939;50.826;9.030;2023-01-05T02:50:16;98627.19;;;9.16;74.52
68137;BME280;54939;50.826;9.030;2023-01-05T02:50:50;98615.72;;;9.15;73.77
68137;BME280;54939;50.826;9.030;2023-01-05T02:51:23;98624.53;;;9.16;73.85
68137;BME280;54939;50.826;9.030;2023-01-05T02:51:55;98623.69;;;9.15;73.61
68137;BME280;54939;50.826;9.030;2023-01-05T02:52:29;98619.22;;;9.16;73.70
68137;BME280;54939;50.826;9.030;2023-01-05T02:53:45;98613.88;;;9.16;74.09
68137;BME280;54939;50.826;9.030;2023-01-05T02:54:21;98629.03;;;9.15;73.74
68137;BME280;54939;50.826;9.030;2023-01-05T02:54:58;98625.38;;;9.16;74.42
68137;BME280;54939;50.826;9.030;2023-01-05T02:55:33;98624.53;;;9.16;73.93
68137;BME280;54939;50.826;9.030;2023-01-05T02:56:24;98620.19;;;9.15;74.09
68137;BME280;54939;50.826;9.030;2023-01-05T02:56:57;98627.19;;;9.16;74.30
68137;BME280;54939;50.826;9.030;2023-01-05T02:57:41;98618.22;;;9.17;73.83
68137;BME280;54939;50.826;9.030;2023-01-05T02:58:18;98613.88;;;9.16;74.00
68137;BME280;54939;50.826;9.030;2023-01-05T02:58:52;98620.19;;;9.15;74.30
68137;BME280;54939;50.826;9.030;2023-01-05T02:59:32;98620.19;;;9.15;74.22
68137;BME280;54939;50.826;9.030;2023-01-05T03:00:04;98619.34;;;9.14;73.86
68137;BME280;54939;50.826;9.030;2023-01-05T03:00:39;98622.84;;;9.15;74.00
68137;BME280;54939;50.826;9.030;2023-01-05T03:01:51;98626.34;;;9.15;73.92
68137;BME280;54939;50.826;9.030;2023-01-05T03:02:23;98633.50;;;9.15;74.04
68137;BME280;54939;50.826;9.030;2023-01-05T03:02:57;98622.00;;;9.14;74.25
68137;BME280;54939;50.826;9.030;2023-01-05T03:03:33;98624.53;;;9.16;74.04
68137;BME280;54939;50.826;9.030;2023-01-05T03:04:10;98626.34;;;9.15;74.27
68137;BME280;54939;50.826;9.030;2023-01-05T03:04:47;98622.72;;;9.16;74.23
68137;BME280;54939;50.826;9.030;2023-01-05T03:05:25;98621.03;;;9.15;74.07
68137;BME280;54939;50.826;9.030;2023-01-05T03:06:19;98623.69;;;9.15;74.18
68137;BME280;54939;50.826;9.030;2023-01-05T03:06:51;98622.84;;;9.15;74.40
68137;BME280;54939;50.826;9.030;2023-01-05T03:07:26;98634.22;;;9.17;73.99
68137;BME280;54939;50.826;9.030;2023-01-05T03:07:57;98626.22;;;9.17;74.28
68137;BME280;54939;50.826;9.030;2023-01-05T03:08:36;98620.91;;;9.17;74.20
68137;BME280;54939;50.826;9.030;2023-01-05T03:09:08;98623.56;;;9.17;74.18
68137;BME280;54939;50.826;9.030;2023-01-05T03:09:38;98615.72;;;9.15;74.25
68137;BME280;54939;50.826;9.030;2023-01-05T03:10:09;98611.22;;;9.16;74.23
68137;BME280;54939;50.826;9.030;2023-01-05T03:11:06;98608.88;;;9.13;73.74
68137;BME280;54939;50.826;9.030;2023-01-05T03:12:05;98621.16;;;9.14;74.06
68137;BME280;54939;50.826;9.030;2023-01-05T03:12:56;98615.00;;;9.13;74.13
68137;BME280;54939;50.826;9.030;2023-01-05T03:13:49;98607.84;;;9.14;74.43
68137;BME280;54939;50.826;9.030;2023-01-05T03:14:30;98612.19;;;9.15;74.29
68137;BME280;54939;50.826;9.030;2023-01-05T03:15:10;98606.03;;;9.14;73.62
68137;BME280;54939;50.826;9.030;2023-01-05T03:15:44;98613.88;;;9.16;74.34
68137;BME280;54939;50.826;9.030;2023-01-05T03:16:22;98617.53;;;9.15;73.92
68137;BME280;54939;50.826;9.030;2023-01-05T03:16:54;98611.22;;;9.16;74.23
68137;BME280;54939;50.826;9.030;2023-01-05T03:17:31;98621.03;;;9.15;74.13
68137;BME280;54939;50.826;9.030;2023-01-05T03:18:09;98617.53;;;9.15;74.17